Janesville, California
Current Conditions -  °F | °C
As of 5:35 PM on Wednesday 26 Nov 2014 (Local Time) from KRTS Reporting Station
Clear Clear  
Wind Chill: 55°   Ceiling: Unl
Heat Index: 55°   Visibility: 10mi
Dew Point: 23°   Wind: 6mph
Humidity: 28%   Direction: 310°NW
Pressure: 30.34"   Gusts: NA
Location:  40.3°N, 120.53°W
Report Text: KRTS 270135Z AUTO 31005KT 10SM CLR 13/M05 A3034 RMK AO2
Loading
Personal Weather Stations






























Interactive Weather Map New forecast layout! Learn more

10-Day Weather Forecast

Advertisements
Track Severe Weather on mobile